createdAt,value
2017-11-25T14:54:39.003Z,985.11
2017-11-25T14:55:38.888Z,985.13
2017-11-25T14:57:31.846Z,985.20
2017-11-25T14:58:31.736Z,985.22
2017-11-25T15:00:24.570Z,985.25
2017-11-25T15:01:24.492Z,985.27
2017-11-25T15:03:17.434Z,985.27
2017-11-25T15:04:17.345Z,985.32
2017-11-25T15:06:10.694Z,985.34
2017-11-25T15:07:10.600Z,985.33
2017-11-25T15:09:04.439Z,985.34
2017-11-25T15:10:04.332Z,985.36
2017-11-25T15:11:57.726Z,985.39
2017-11-25T15:12:57.650Z,985.37
2017-11-25T15:14:50.501Z,985.41
2017-11-25T15:15:50.391Z,985.42
2017-11-25T15:17:43.222Z,985.42
2017-11-25T15:18:43.136Z,985.44
2017-11-25T15:20:35.983Z,985.46
2017-11-25T15:21:35.910Z,985.47
2017-11-25T15:23:28.929Z,985.54
2017-11-25T15:24:28.835Z,985.58
2017-11-25T15:26:22.481Z,985.62
2017-11-25T15:27:22.307Z,985.62
2017-11-25T15:29:15.143Z,985.69
2017-11-25T15:30:15.062Z,985.71
2017-11-25T15:44:41.057Z,985.91
2017-11-25T15:45:38.946Z,985.89
2017-11-25T15:47:31.094Z,985.92
2017-11-25T15:48:32.299Z,985.92
2017-11-25T15:50:25.045Z,985.94
2017-11-25T15:51:24.636Z,985.91
2017-11-25T15:53:18.575Z,986.01
2017-11-25T15:54:18.429Z,986.01
2017-11-25T15:56:12.706Z,986.00
2017-11-25T15:57:11.832Z,986.04
2017-11-25T15:59:05.853Z,986.02
2017-11-25T16:00:07.536Z,986.06
2017-11-25T16:02:01.038Z,986.06
2017-11-25T16:03:01.349Z,986.09
2017-11-25T16:04:54.771Z,986.12
2017-11-25T16:05:55.762Z,986.09
2017-11-25T16:07:47.479Z,986.15
2017-11-25T16:08:47.190Z,986.15
2017-11-25T16:10:40.329Z,986.18
2017-11-25T16:11:40.671Z,986.19
2017-11-25T16:13:35.186Z,986.16
2017-11-25T16:14:34.998Z,986.16
2017-11-25T16:16:30.412Z,986.16
2017-11-25T16:17:29.745Z,986.23
2017-11-25T16:19:23.225Z,986.24
2017-11-25T16:20:24.013Z,986.24
2017-11-25T16:22:16.260Z,986.25
2017-11-25T16:23:15.916Z,986.29
2017-11-25T16:25:10.591Z,986.32
2017-11-25T16:26:09.226Z,986.32
2017-11-25T16:28:05.139Z,986.33
2017-11-25T16:29:04.490Z,986.33
2017-11-25T16:31:03.406Z,986.39
2017-11-25T16:32:00.701Z,986.40
2017-11-25T16:34:09.936Z,986.41
2017-11-25T16:37:04.040Z,986.44
2017-11-25T16:38:04.646Z,986.46
2017-11-25T16:39:59.296Z,986.53
2017-11-25T16:41:00.324Z,986.52
2017-11-25T16:42:56.628Z,986.50
2017-11-25T16:43:55.080Z,986.50
2017-11-25T17:33:42.764Z,986.82
2017-11-25T17:34:42.591Z,986.78
2017-11-25T17:36:36.244Z,986.78
2017-11-25T17:37:36.712Z,986.83
2017-11-25T17:39:30.257Z,986.81
2017-11-25T17:41:50.916Z,986.83
2017-11-25T17:44:11.227Z,986.84
2017-11-25T17:45:19.570Z,986.84
2017-11-25T17:47:05.085Z,986.91
2017-11-25T17:48:04.985Z,986.97
2017-11-25T17:49:58.612Z,987.00
2017-11-25T17:50:59.040Z,986.99
2017-11-25T17:52:51.075Z,987.03
2017-11-25T17:53:52.456Z,987.06
2017-11-25T17:55:43.637Z,987.14
2017-11-25T17:56:45.147Z,987.09
2017-11-25T17:58:36.028Z,987.09
2017-11-25T18:00:57.300Z,987.12
2017-11-25T18:01:58.581Z,987.13
2017-11-25T18:03:50.361Z,987.18
2017-11-25T18:04:51.233Z,987.19
2017-11-25T18:06:43.720Z,987.17
2017-11-25T18:07:43.104Z,987.19
2017-11-25T18:09:35.966Z,987.26
2017-11-25T18:10:36.131Z,987.17
2017-11-25T18:12:29.222Z,987.22
2017-11-25T18:13:30.104Z,987.24
2017-11-25T18:15:22.933Z,987.25
2017-11-25T18:16:24.167Z,987.27
2017-11-25T18:18:15.834Z,987.25
2017-11-25T18:19:15.815Z,987.25
2017-11-25T18:21:09.003Z,987.29
2017-11-25T18:22:09.502Z,987.25
2017-11-25T18:24:02.250Z,987.23
2017-11-25T18:25:03.233Z,987.21
2017-11-25T18:26:55.704Z,987.25
2017-11-25T18:27:55.525Z,987.24
2017-11-25T18:29:48.046Z,987.25
2017-11-25T18:30:48.573Z,987.21
2017-11-25T18:32:40.590Z,987.25
2017-11-25T18:33:40.626Z,987.25
2017-11-25T18:35:33.095Z,987.29
2017-11-25T18:36:33.683Z,987.28
2017-11-25T18:38:26.016Z,987.26
2017-11-25T18:39:26.552Z,987.25
2017-11-25T18:41:19.782Z,987.26
2017-11-25T18:42:19.568Z,987.28
2017-11-25T18:44:12.336Z,987.36
2017-11-25T18:46:33.364Z,987.34
2017-11-25T18:48:53.973Z,987.41
2017-11-25T18:51:13.292Z,987.45
2017-11-25T18:52:12.796Z,987.41
2017-11-25T18:54:05.793Z,987.43
2017-11-25T18:55:06.586Z,987.42
2017-11-25T18:56:59.255Z,987.41
2017-11-25T18:57:59.965Z,987.42
2017-11-25T18:59:52.276Z,987.46
2017-11-25T19:00:52.498Z,987.49
2017-11-25T19:02:46.527Z,987.44
2017-11-25T19:03:47.358Z,987.43
2017-11-25T19:05:39.714Z,987.46
2017-11-25T19:06:41.328Z,987.46
2017-11-25T19:08:31.976Z,987.48
2017-11-25T19:09:33.892Z,987.48
2017-11-25T19:11:25.916Z,987.54
2017-11-25T19:12:25.260Z,987.48
2017-11-25T19:14:19.058Z,987.61
2017-11-25T19:15:19.355Z,987.66
2017-11-25T19:17:15.766Z,987.65
2017-11-25T19:18:16.196Z,987.68
2017-11-25T19:20:08.432Z,987.71
2017-11-25T19:22:23.575Z,987.75
2017-11-25T19:23:23.068Z,987.79
2017-11-25T19:25:15.676Z,987.83
2017-11-25T19:26:15.764Z,987.77
2017-11-25T19:28:09.616Z,987.82
2017-11-25T19:29:09.263Z,987.84
2017-11-25T19:31:02.424Z,987.81
2017-11-25T19:32:03.005Z,987.83
2017-11-25T19:33:55.442Z,987.88
2017-11-25T19:34:55.257Z,987.91
2017-11-25T19:36:48.941Z,988.02
2017-11-25T19:37:49.091Z,987.97
2017-11-25T19:39:44.267Z,988.02
2017-11-25T19:40:45.112Z,988.00
2017-11-25T19:42:38.180Z,988.07
2017-11-25T19:43:38.197Z,988.04
2017-11-25T19:45:34.389Z,988.02
2017-11-25T19:46:33.671Z,988.04
2017-11-25T19:48:28.665Z,988.12
2017-11-25T19:49:28.218Z,988.16
2017-11-25T19:51:22.900Z,988.16
2017-11-25T19:52:22.919Z,988.20
2017-11-25T19:54:16.948Z,988.28
2017-11-25T19:55:16.268Z,988.28
2017-11-25T19:57:09.606Z,988.32
2017-11-25T19:58:10.558Z,988.35
2017-11-25T20:00:03.256Z,988.35
2017-11-25T20:02:25.042Z,988.37
2017-11-25T20:04:49.933Z,988.36
2017-11-25T20:07:43.242Z,988.44
2017-11-25T20:10:04.491Z,988.45
2017-11-25T20:12:25.454Z,988.51
2017-11-25T20:13:26.351Z,988.48
2017-11-25T20:15:19.589Z,988.50
2017-11-25T20:16:26.886Z,988.55
2017-11-25T20:18:15.558Z,988.53
2017-11-25T20:19:14.520Z,988.53
2017-11-25T20:21:07.234Z,988.46
2017-11-25T20:22:07.304Z,988.53
2017-11-25T20:24:00.593Z,988.53
2017-11-25T20:25:00.278Z,988.49
2017-11-25T20:26:53.038Z,988.50
2017-11-25T20:27:53.303Z,988.53
2017-11-25T20:29:45.633Z,988.49
2017-11-25T20:30:45.577Z,988.48
2017-11-25T20:32:38.155Z,988.47
2017-11-25T20:33:38.235Z,988.49
2017-11-25T20:35:31.034Z,988.55
2017-11-25T20:36:31.479Z,988.52
2017-11-25T20:38:24.273Z,988.49
2017-11-25T20:39:25.133Z,988.55
2017-11-25T20:41:17.097Z,988.60
2017-11-25T20:42:17.122Z,988.60
2017-11-25T20:44:09.768Z,988.63
2017-11-25T20:45:09.935Z,988.60
2017-11-25T20:47:02.792Z,988.62
2017-11-25T20:48:02.898Z,988.65
2017-11-25T20:49:55.993Z,988.67
2017-11-25T20:50:55.619Z,988.70
2017-11-25T20:52:48.190Z,988.72
2017-11-25T20:53:48.494Z,988.72
2017-11-25T20:55:41.424Z,988.78
2017-11-25T20:58:34.162Z,988.79
2017-11-25T20:59:35.144Z,988.80
2017-11-25T21:01:28.656Z,988.76
2017-11-25T21:02:28.410Z,988.79
2017-11-25T21:04:21.572Z,988.80
2017-11-25T21:05:29.628Z,988.76
2017-11-25T21:07:14.412Z,988.83
2017-11-25T21:08:13.812Z,988.82
2017-11-25T21:10:07.601Z,988.81
2017-11-25T21:11:07.507Z,988.81
2017-11-25T21:13:00.331Z,988.84
2017-11-25T21:14:00.111Z,988.82
2017-11-25T21:15:52.594Z,988.78
2017-11-25T21:16:52.490Z,988.81
2017-11-25T21:18:45.713Z,988.87
2017-11-25T21:19:45.984Z,988.80
2017-11-25T21:21:38.291Z,988.87
2017-11-25T21:22:37.818Z,988.86
2017-11-25T21:24:30.749Z,988.86
2017-11-25T21:25:30.347Z,988.85
2017-11-25T21:27:24.832Z,988.84
2017-11-25T21:28:24.290Z,988.86
2017-11-25T21:30:16.952Z,988.89
2017-11-25T21:31:16.731Z,988.91
2017-11-25T21:33:09.773Z,988.87
2017-11-25T21:34:10.188Z,988.84
2017-11-25T21:36:03.141Z,988.85
2017-11-25T21:37:03.260Z,988.89
2017-11-25T21:38:55.833Z,988.85
2017-11-25T21:39:55.888Z,988.86
2017-11-25T21:41:48.555Z,988.89
2017-11-25T21:42:48.018Z,988.93
2017-11-25T21:44:41.843Z,988.96
2017-11-25T21:45:41.893Z,988.96
2017-11-25T21:47:34.663Z,988.89
2017-11-25T21:48:35.624Z,988.95
2017-11-25T21:50:29.141Z,988.98
2017-11-25T21:51:28.456Z,989.01
2017-11-25T21:53:21.601Z,989.04
2017-11-25T21:55:46.205Z,989.06
2017-11-25T21:56:42.890Z,989.03
2017-11-25T21:58:37.265Z,989.05
2017-11-25T21:59:44.015Z,989.12
2017-11-25T22:01:31.556Z,989.08
2017-11-25T22:02:30.760Z,989.11
2017-11-25T22:04:25.085Z,989.06
2017-11-25T22:05:23.387Z,989.09
2017-11-25T22:07:15.928Z,989.06
2017-11-25T22:08:16.431Z,989.10
2017-11-25T22:10:08.119Z,989.16
2017-11-25T22:11:07.701Z,989.19
2017-11-25T22:13:01.644Z,989.23
2017-11-25T22:14:02.033Z,989.23
2017-11-25T22:15:53.934Z,989.27
2017-11-25T22:16:53.763Z,989.25
2017-11-25T22:18:47.210Z,989.28
2017-11-25T22:19:47.704Z,989.24
2017-11-25T22:21:40.314Z,989.27
2017-11-25T22:22:40.613Z,989.28
2017-11-25T22:24:33.665Z,989.28
2017-11-25T22:25:33.185Z,989.33
2017-11-25T22:27:26.415Z,989.34
2017-11-25T22:28:26.049Z,989.36
2017-11-25T22:30:19.521Z,989.35
2017-11-25T22:31:18.912Z,989.35
2017-11-25T22:33:11.456Z,989.32
2017-11-25T22:34:11.645Z,989.32
2017-11-25T22:36:04.105Z,989.32
2017-11-25T22:37:04.326Z,989.39
2017-11-25T22:38:57.134Z,989.39
2017-11-25T22:39:57.078Z,989.38
2017-11-25T22:41:49.849Z,989.42
2017-11-25T22:42:49.663Z,989.41
2017-11-25T22:44:42.286Z,989.39
2017-11-25T22:45:42.392Z,989.38
2017-11-25T22:47:35.081Z,989.36
2017-11-25T22:48:35.231Z,989.44
2017-11-25T22:50:28.490Z,989.46
2017-11-25T22:51:28.597Z,989.45
2017-11-25T22:53:22.087Z,989.45
2017-11-25T22:54:22.648Z,989.41
2017-11-25T22:56:16.007Z,989.52
2017-11-25T22:58:36.244Z,989.46
2017-11-25T22:59:35.827Z,989.41
2017-11-25T23:01:27.016Z,989.44
2017-11-25T23:02:26.965Z,989.47
2017-11-25T23:04:19.653Z,989.50
2017-11-25T23:05:19.594Z,989.48
2017-11-25T23:07:12.091Z,989.55
2017-11-25T23:08:11.867Z,989.61
2017-11-25T23:10:04.850Z,989.61
2017-11-25T23:11:05.089Z,989.66
2017-11-25T23:12:57.644Z,989.65
2017-11-25T23:13:58.883Z,989.62
2017-11-25T23:15:50.485Z,989.66
2017-11-25T23:16:50.710Z,989.63
2017-11-25T23:18:42.821Z,989.63
2017-11-25T23:19:43.009Z,989.65
2017-11-25T23:21:36.342Z,989.68
2017-11-25T23:22:35.933Z,989.67
2017-11-25T23:24:28.590Z,989.63
2017-11-25T23:25:29.475Z,989.64
2017-11-25T23:27:21.797Z,989.62
2017-11-25T23:28:21.791Z,989.57
2017-11-25T23:30:14.183Z,989.69
2017-11-25T23:31:14.115Z,989.68
2017-11-25T23:33:08.159Z,989.69
2017-11-25T23:34:07.779Z,989.76
2017-11-25T23:36:01.289Z,989.76
2017-11-25T23:37:00.538Z,989.78
2017-11-25T23:38:53.656Z,989.74
2017-11-25T23:39:53.218Z,989.74
2017-11-25T23:41:46.143Z,989.75
2017-11-25T23:42:45.715Z,989.75
2017-11-25T23:44:38.662Z,989.71
2017-11-25T23:45:38.482Z,989.70
2017-11-25T23:47:31.144Z,989.73
2017-11-25T23:48:31.786Z,989.67
2017-11-25T23:50:23.875Z,989.71
2017-11-25T23:51:24.299Z,989.73
2017-11-25T23:53:17.364Z,989.67
2017-11-25T23:54:17.574Z,989.66
2017-11-25T23:56:11.576Z,989.69
2017-11-25T23:57:12.269Z,989.66
2017-11-25T23:59:04.256Z,989.67
